KADW

Joint Base Andrews Airport

Camp Springs, Maryland, USA
METAR KADW 172116Z 06005KT 3/4SM R01R/5500V6000FT -SN BR VV003 00/M01 A3020 RMK AO2A SLP237
Observed Flight Rules
Feb-17 @ 21:16 UTC (19 minutes ago) Instrument Flight Rules
Wind Visibility Clouds Conditions
60° at 5 knots 3/4 miles
  • Vertical visibility at 300' AGL
  • Light Snow
  • Mist
Temperatures Readings
Current 0°C / 32°F
Dewpoint -1°C / 30°F
Humidity 93%
Altimeter 30.2" Hg
Pressure 1023.7 hPa
Elevation 86
METAR KADW 172116Z 06005KT 3/4SM R01R/5500V6000FT -SN BR VV003 00/M01 A3020 RMK AO2A SLP237
Observed Flight Rules
Feb-17 @ 21:16 UTC
(19 minutes ago)
LIFR
Wind Visibility
60° at 5 knots 3/4 miles
Clouds
  • Vertical visibility at 300' AGL
Conditions
  • Light Snow
  • Mist
Temperature Dewpoint
0°C / 32°F -1°C / 30°F
Humidity Altimeter Pressure
93% 30.2" Hg 1023.7 hPa